createdAt,value
2022-08-14T00:00:45.061Z,19.70
2022-08-14T00:03:20.513Z,19.70
2022-08-14T00:06:00.278Z,19.60
2022-08-14T00:08:45.351Z,19.60
2022-08-14T00:11:14.144Z,19.60
2022-08-14T00:13:52.671Z,19.60
2022-08-14T00:16:41.547Z,19.60
2022-08-14T00:19:19.198Z,19.50
2022-08-14T00:21:50.856Z,19.50
2022-08-14T00:24:29.058Z,19.50
2022-08-14T00:27:02.212Z,19.50
2022-08-14T00:29:33.191Z,19.50
2022-08-14T00:32:52.105Z,19.40
2022-08-14T00:35:01.227Z,19.40
2022-08-14T00:37:30.444Z,19.40
2022-08-14T00:40:02.739Z,19.30
2022-08-14T00:42:55.899Z,19.30
2022-08-14T00:45:27.322Z,19.30
2022-08-14T00:48:00.033Z,19.30
2022-08-14T00:50:30.986Z,19.20
2022-08-14T00:53:01.552Z,19.20
2022-08-14T00:55:32.186Z,19.20
2022-08-14T00:58:32.419Z,19.20
2022-08-14T01:01:03.494Z,19.10
2022-08-14T01:03:39.542Z,19.10
2022-08-14T01:06:14.116Z,19.00
2022-08-14T01:08:57.193Z,19.00
2022-08-14T01:11:31.608Z,19.00
2022-08-14T01:14:25.978Z,18.90
2022-08-14T01:16:55.563Z,18.90
2022-08-14T01:19:42.098Z,18.90
2022-08-14T01:22:13.735Z,18.90
2022-08-14T01:24:48.379Z,18.80
2022-08-14T01:27:22.398Z,18.80
2022-08-14T01:30:00.766Z,18.80
2022-08-14T01:32:37.269Z,18.80
2022-08-14T01:35:18.199Z,18.80
2022-08-14T01:38:03.955Z,18.70
2022-08-14T01:40:40.932Z,18.70
2022-08-14T01:43:14.237Z,18.70
2022-08-14T01:45:49.088Z,18.70
2022-08-14T01:48:28.566Z,18.60
2022-08-14T01:51:01.270Z,18.60
2022-08-14T01:53:33.522Z,18.60
2022-08-14T01:56:12.184Z,18.60
2022-08-14T01:58:57.523Z,18.50
2022-08-14T02:01:27.405Z,18.50
2022-08-14T02:03:57.418Z,18.50
2022-08-14T02:06:33.063Z,18.50
2022-08-14T02:09:04.467Z,18.50
2022-08-14T02:11:48.856Z,18.50
2022-08-14T02:14:31.147Z,18.40
2022-08-14T02:17:02.414Z,18.40
2022-08-14T02:19:35.708Z,18.40
2022-08-14T02:22:04.607Z,18.40
2022-08-14T02:24:39.330Z,18.30
2022-08-14T02:28:22.234Z,18.30
2022-08-14T02:30:02.011Z,18.30
2022-08-14T02:32:36.806Z,18.20
2022-08-14T02:35:18.959Z,18.20
2022-08-14T02:37:49.850Z,18.20
2022-08-14T02:40:31.811Z,18.20
2022-08-14T02:43:03.881Z,18.10
2022-08-14T02:45:37.970Z,18.10
2022-08-14T02:49:02.532Z,18.10
2022-08-14T02:51:00.847Z,18.10
2022-08-14T02:53:33.721Z,18.10
2022-08-14T02:56:29.686Z,18.00
2022-08-14T02:59:01.866Z,18.00
2022-08-14T03:01:43.314Z,18.00
2022-08-14T03:04:12.996Z,18.00
2022-08-14T03:06:57.336Z,17.90
2022-08-14T03:09:42.034Z,17.90
2022-08-14T03:12:31.014Z,17.90
2022-08-14T03:15:03.594Z,17.90
2022-08-14T03:17:55.975Z,17.90
2022-08-14T03:20:23.249Z,17.90
2022-08-14T03:22:52.575Z,17.80
2022-08-14T03:25:23.094Z,17.80
2022-08-14T03:27:58.552Z,17.80
2022-08-14T03:30:38.999Z,17.80
2022-08-14T03:33:11.270Z,17.70
2022-08-14T03:36:00.135Z,17.70
2022-08-14T03:39:14.262Z,17.70
2022-08-14T03:41:23.127Z,17.60
2022-08-14T03:43:57.875Z,17.60
2022-08-14T03:46:38.734Z,17.50
2022-08-14T03:49:24.293Z,17.50
2022-08-14T03:52:00.844Z,17.50
2022-08-14T03:54:30.148Z,17.50
2022-08-14T03:57:02.984Z,17.50
2022-08-14T03:59:34.047Z,17.50
2022-08-14T04:02:31.917Z,17.50
2022-08-14T04:04:53.466Z,17.50
2022-08-14T04:07:22.829Z,17.50
2022-08-14T04:09:52.739Z,17.50
2022-08-14T04:12:26.103Z,17.50
2022-08-14T04:14:57.274Z,17.50
2022-08-14T04:17:26.190Z,17.50
2022-08-14T04:19:55.605Z,17.50
2022-08-14T04:22:25.343Z,17.40
2022-08-14T04:24:54.248Z,17.40
2022-08-14T04:27:23.293Z,17.40
2022-08-14T04:29:52.151Z,17.40
2022-08-14T04:33:02.796Z,17.40
2022-08-14T04:35:12.193Z,17.40
2022-08-14T04:38:10.604Z,17.40
2022-08-14T04:41:10.249Z,17.40
2022-08-14T04:43:40.653Z,17.40
2022-08-14T04:46:55.932Z,17.30
2022-08-14T04:49:08.128Z,17.30
2022-08-14T04:51:37.347Z,17.30
2022-08-14T04:54:16.655Z,17.30
2022-08-14T04:56:45.848Z,17.30
2022-08-14T04:59:14.444Z,17.40
2022-08-14T05:01:49.787Z,17.30
2022-08-14T05:04:22.009Z,17.40
2022-08-14T05:06:53.574Z,17.30
2022-08-14T05:09:24.100Z,17.40
2022-08-14T05:11:53.039Z,17.40
2022-08-14T05:14:45.826Z,17.40
2022-08-14T05:17:13.045Z,17.40
2022-08-14T05:21:04.276Z,17.50
2022-08-14T05:22:32.819Z,17.50
2022-08-14T05:25:03.513Z,17.50
2022-08-14T05:27:32.178Z,17.50
2022-08-14T05:30:05.424Z,17.60
2022-08-14T05:32:34.169Z,17.70
2022-08-14T05:35:04.870Z,17.70
2022-08-14T05:37:33.462Z,17.80
2022-08-14T05:40:02.150Z,17.90
2022-08-14T05:42:34.351Z,18.00
2022-08-14T05:45:20.580Z,18.10
2022-08-14T05:47:50.952Z,18.20
2022-08-14T05:50:21.239Z,18.30
2022-08-14T05:52:52.349Z,18.50
2022-08-14T05:55:23.101Z,18.70
2022-08-14T05:57:54.100Z,18.90
2022-08-14T06:00:29.866Z,19.20
2022-08-14T06:03:04.130Z,19.40
2022-08-14T06:05:38.605Z,19.60
2022-08-14T06:08:31.131Z,19.90
2022-08-14T06:11:08.929Z,20.10
2022-08-14T06:13:45.399Z,20.40
2022-08-14T06:16:17.453Z,20.50
2022-08-14T06:18:52.641Z,20.80
2022-08-14T06:21:24.213Z,20.90
2022-08-14T06:23:53.221Z,21.10
2022-08-14T06:26:22.683Z,21.30
2022-08-14T06:28:59.146Z,21.40
2022-08-14T06:31:28.224Z,21.60
2022-08-14T06:35:02.313Z,21.70
2022-08-14T06:36:46.877Z,21.80
2022-08-14T06:39:17.140Z,21.90
2022-08-14T06:41:59.462Z,22.00
2022-08-14T06:44:30.402Z,22.10
2022-08-14T06:47:03.354Z,22.20
2022-08-14T06:49:42.783Z,22.30
2022-08-14T06:52:16.341Z,22.40
2022-08-14T06:54:45.789Z,22.50
2022-08-14T06:57:14.505Z,22.60
2022-08-14T06:59:43.271Z,22.70
2022-08-14T07:02:29.949Z,22.70
2022-08-14T07:05:20.990Z,22.80
2022-08-14T07:07:53.255Z,23.00
2022-08-14T07:10:24.934Z,23.00
2022-08-14T07:13:03.733Z,23.10
2022-08-14T07:15:42.128Z,23.20
2022-08-14T07:18:12.371Z,23.20
2022-08-14T07:20:42.362Z,23.30
2022-08-14T07:23:20.797Z,23.40
2022-08-14T07:25:51.804Z,23.40
2022-08-14T07:28:24.500Z,23.50
2022-08-14T07:30:57.441Z,23.60
2022-08-14T07:33:35.109Z,23.70
2022-08-14T07:36:30.363Z,23.80
2022-08-14T07:38:59.791Z,23.80
2022-08-14T07:41:33.846Z,23.90
2022-08-14T07:44:29.460Z,24.00
2022-08-14T07:46:53.549Z,24.10
2022-08-14T07:49:24.235Z,24.20
2022-08-14T07:51:53.074Z,24.30
2022-08-14T07:54:29.947Z,24.30
2022-08-14T07:57:00.704Z,24.40
2022-08-14T07:59:40.984Z,24.40
2022-08-14T08:02:18.869Z,24.40
2022-08-14T08:04:52.982Z,24.50
2022-08-14T08:07:23.577Z,24.60
2022-08-14T08:09:57.862Z,24.60
2022-08-14T08:12:30.224Z,24.70
2022-08-14T08:15:03.443Z,24.80
2022-08-14T08:17:42.686Z,24.80
2022-08-14T08:20:27.475Z,24.90
2022-08-14T08:23:00.420Z,24.90
2022-08-14T08:25:39.834Z,25.00
2022-08-14T08:28:22.101Z,25.10
2022-08-14T08:30:53.221Z,25.10
2022-08-14T08:33:23.490Z,25.10
2022-08-14T08:35:52.322Z,25.20
2022-08-14T08:39:15.268Z,25.20
2022-08-14T08:41:14.244Z,25.30
2022-08-14T08:43:46.236Z,25.40
2022-08-14T08:46:23.730Z,25.50
2022-08-14T08:51:30.935Z,25.60
2022-08-14T08:54:03.932Z,25.60
2022-08-14T08:56:42.254Z,25.70
2022-08-14T08:59:22.643Z,25.80
2022-08-14T09:01:58.555Z,25.90
2022-08-14T09:04:31.092Z,26.10
2022-08-14T09:07:09.145Z,26.10
2022-08-14T09:09:54.089Z,26.10
2022-08-14T09:12:32.193Z,26.20
2022-08-14T09:15:03.316Z,26.30
2022-08-14T09:17:33.605Z,26.30
2022-08-14T09:20:04.074Z,26.40
2022-08-14T09:22:36.581Z,26.60
2022-08-14T09:25:11.845Z,26.60
2022-08-14T09:27:45.202Z,26.80
2022-08-14T09:30:32.391Z,26.90
2022-08-14T09:33:30.912Z,26.90
2022-08-14T09:36:13.281Z,27.00
2022-08-14T09:38:48.531Z,27.10
2022-08-14T09:42:17.207Z,27.10
2022-08-14T09:44:45.628Z,27.10
2022-08-14T09:47:16.864Z,27.20
2022-08-14T09:49:52.196Z,27.30
2022-08-14T09:52:34.044Z,27.40
2022-08-14T09:55:04.735Z,27.50
2022-08-14T09:57:33.600Z,27.50
2022-08-14T10:00:28.791Z,27.60
2022-08-14T10:03:05.235Z,27.70
2022-08-14T10:05:37.845Z,27.70
2022-08-14T10:08:25.331Z,27.80
2022-08-14T10:10:57.124Z,27.90
2022-08-14T10:13:43.279Z,28.00
2022-08-14T10:16:29.196Z,28.10
2022-08-14T10:19:07.638Z,28.20
2022-08-14T10:23:13.597Z,28.30
2022-08-14T10:24:37.407Z,28.40
2022-08-14T10:27:17.028Z,28.40
2022-08-14T10:29:49.362Z,28.40
2022-08-14T10:32:28.291Z,28.50
2022-08-14T10:35:13.519Z,28.50
2022-08-14T10:37:48.179Z,28.50
2022-08-14T10:40:43.445Z,28.60
2022-08-14T10:43:22.779Z,28.70
2022-08-14T10:46:58.901Z,28.80
2022-08-14T10:49:00.153Z,28.90
2022-08-14T10:51:34.174Z,29.00
2022-08-14T10:54:16.929Z,29.00
2022-08-14T10:56:58.505Z,29.00
2022-08-14T10:59:30.734Z,28.90
2022-08-14T11:02:00.468Z,28.80
2022-08-14T11:04:31.261Z,28.70
2022-08-14T11:07:00.288Z,28.60
2022-08-14T11:09:31.877Z,28.50
2022-08-14T11:12:34.959Z,28.50
2022-08-14T11:14:59.354Z,28.50
2022-08-14T11:17:33.124Z,28.50
2022-08-14T11:20:06.040Z,28.50
2022-08-14T11:22:55.624Z,28.60
2022-08-14T11:25:44.088Z,28.50
2022-08-14T11:28:47.731Z,28.50
2022-08-14T11:31:14.933Z,28.40
2022-08-14T11:33:44.590Z,28.40
2022-08-14T11:36:18.024Z,28.40
2022-08-14T11:38:48.180Z,28.30
2022-08-14T11:41:17.656Z,28.40
2022-08-14T11:43:56.239Z,28.50
2022-08-14T11:46:29.837Z,28.60
2022-08-14T11:49:03.733Z,28.90
2022-08-14T11:51:53.406Z,29.00
2022-08-14T11:54:34.282Z,29.10
2022-08-14T11:57:05.138Z,29.00
2022-08-14T11:59:34.446Z,29.00
2022-08-14T12:03:01.184Z,28.90
2022-08-14T12:05:04.239Z,28.80
2022-08-14T12:07:34.563Z,28.70
2022-08-14T12:10:26.373Z,28.60
2022-08-14T12:12:55.288Z,28.60
2022-08-14T12:15:31.935Z,28.60
2022-08-14T12:18:02.057Z,28.70
2022-08-14T12:20:36.249Z,28.90
2022-08-14T12:23:08.061Z,29.10
2022-08-14T12:25:37.686Z,29.30
2022-08-14T12:28:26.971Z,29.40
2022-08-14T12:31:16.785Z,29.50
2022-08-14T12:33:59.767Z,29.50
2022-08-14T12:36:30.447Z,29.50
2022-08-14T12:39:01.830Z,29.60
2022-08-14T12:41:37.247Z,29.70
2022-08-14T12:44:08.427Z,29.70
2022-08-14T12:46:40.994Z,29.70
2022-08-14T12:49:15.967Z,29.70
2022-08-14T12:51:56.907Z,29.60
2022-08-14T12:54:29.210Z,29.50
2022-08-14T12:57:06.557Z,29.40
2022-08-14T12:59:42.610Z,29.50
2022-08-14T13:02:26.292Z,29.70
2022-08-14T13:04:56.768Z,30.00
2022-08-14T13:07:32.441Z,30.20
2022-08-14T13:10:12.951Z,30.40
2022-08-14T13:13:12.959Z,30.40
2022-08-14T13:15:43.873Z,30.40
2022-08-14T13:18:15.759Z,30.20
2022-08-14T13:20:51.405Z,30.10
2022-08-14T13:23:31.680Z,30.00
2022-08-14T13:26:03.036Z,30.00
2022-08-14T13:28:34.884Z,30.00
2022-08-14T13:31:13.232Z,30.00
2022-08-14T13:33:42.853Z,30.00
2022-08-14T13:36:23.915Z,30.10
2022-08-14T13:39:01.461Z,30.10
2022-08-14T13:41:36.311Z,30.20
2022-08-14T13:44:07.916Z,30.40
2022-08-14T13:46:44.330Z,30.50
2022-08-14T13:49:15.202Z,30.80
2022-08-14T13:51:48.317Z,31.00
2022-08-14T13:54:21.098Z,31.10
2022-08-14T13:56:55.608Z,31.30
2022-08-14T13:59:37.677Z,31.40
2022-08-14T14:02:09.351Z,31.50
2022-08-14T14:04:41.006Z,31.60
2022-08-14T14:07:13.104Z,31.70
2022-08-14T14:09:52.853Z,31.80
2022-08-14T14:12:38.384Z,31.80
2022-08-14T14:15:13.734Z,31.80
2022-08-14T14:17:44.290Z,31.90
2022-08-14T14:20:35.908Z,31.90
2022-08-14T14:23:10.538Z,31.90
2022-08-14T14:25:48.023Z,31.90
2022-08-14T14:28:24.636Z,31.90
2022-08-14T14:30:57.373Z,32.10
2022-08-14T14:33:49.304Z,32.10
2022-08-14T14:36:23.309Z,32.10
2022-08-14T14:38:54.369Z,32.10
2022-08-14T14:41:24.652Z,32.00
2022-08-14T14:43:57.661Z,31.90
2022-08-14T14:46:36.914Z,31.80
2022-08-14T14:49:14.191Z,31.80
2022-08-14T14:51:46.949Z,31.80
2022-08-14T14:54:31.204Z,31.80
2022-08-14T14:57:09.218Z,31.80
2022-08-14T14:59:39.473Z,31.70
2022-08-14T15:02:09.665Z,31.70
2022-08-14T15:04:43.609Z,31.60
2022-08-14T15:07:16.245Z,31.70
2022-08-14T15:09:45.371Z,31.60
2022-08-14T15:12:34.461Z,31.60
2022-08-14T15:15:09.482Z,31.60
2022-08-14T15:17:41.515Z,31.60
2022-08-14T15:20:17.277Z,31.60
2022-08-14T15:23:00.754Z,31.60
2022-08-14T15:25:31.615Z,31.50
2022-08-14T15:28:00.833Z,31.40
2022-08-14T15:30:33.869Z,31.30
2022-08-14T15:33:02.447Z,31.20
2022-08-14T15:35:34.196Z,31.10
2022-08-14T15:38:08.767Z,31.10
2022-08-14T15:40:41.159Z,31.00
2022-08-14T15:43:13.058Z,31.00
2022-08-14T15:45:43.219Z,30.90
2022-08-14T15:48:22.265Z,30.80
2022-08-14T15:50:52.004Z,30.70
2022-08-14T15:53:22.420Z,30.70
2022-08-14T15:55:52.974Z,30.60
2022-08-14T15:58:22.064Z,30.50
2022-08-14T16:01:10.347Z,30.40
2022-08-14T16:03:42.482Z,30.40
2022-08-14T16:06:17.931Z,30.30
2022-08-14T16:08:50.470Z,30.30
2022-08-14T16:11:26.777Z,30.30
2022-08-14T16:13:57.794Z,30.20
2022-08-14T16:16:34.919Z,30.20
2022-08-14T16:19:21.142Z,30.20
2022-08-14T16:22:02.146Z,30.10
2022-08-14T16:25:02.569Z,30.20
2022-08-14T16:27:37.114Z,30.20
2022-08-14T16:30:20.601Z,30.20
2022-08-14T16:32:56.559Z,30.20
2022-08-14T16:35:42.264Z,30.20
2022-08-14T16:38:35.685Z,30.20
2022-08-14T16:41:23.215Z,30.10
2022-08-14T16:43:59.341Z,30.10
2022-08-14T16:46:32.665Z,30.00
2022-08-14T16:49:05.528Z,29.90
2022-08-14T16:51:38.599Z,29.90
2022-08-14T16:54:33.641Z,29.80
2022-08-14T16:57:13.904Z,29.80
2022-08-14T16:59:51.985Z,29.70
2022-08-14T17:02:34.282Z,29.70
2022-08-14T17:05:21.773Z,29.60
2022-08-14T17:08:41.585Z,29.50
2022-08-14T17:11:09.980Z,29.50
2022-08-14T17:13:57.748Z,29.40
2022-08-14T17:16:35.569Z,29.30
2022-08-14T17:19:05.569Z,29.20
2022-08-14T17:21:40.958Z,29.10
2022-08-14T17:24:57.289Z,29.10
2022-08-14T17:27:04.449Z,29.00
2022-08-14T17:29:44.807Z,29.00
2022-08-14T17:32:29.633Z,28.90
2022-08-14T17:35:16.466Z,28.80
2022-08-14T17:37:55.958Z,28.80
2022-08-14T17:40:31.105Z,28.70
2022-08-14T17:43:01.669Z,28.70
2022-08-14T17:45:46.770Z,28.60
2022-08-14T17:49:15.156Z,28.60
2022-08-14T17:51:23.916Z,28.50
2022-08-14T17:54:02.356Z,28.40
2022-08-14T17:56:32.941Z,28.40
2022-08-14T17:59:05.097Z,28.30
2022-08-14T18:01:38.914Z,28.20
2022-08-14T18:04:24.357Z,28.20
2022-08-14T18:07:08.751Z,28.10
2022-08-14T18:09:56.741Z,28.00
2022-08-14T18:12:36.661Z,28.00
2022-08-14T18:15:15.807Z,27.90
2022-08-14T18:17:52.809Z,27.80
2022-08-14T18:21:42.924Z,27.70
2022-08-14T18:23:14.956Z,27.60
2022-08-14T18:25:49.728Z,27.50
2022-08-14T18:28:40.106Z,27.40
2022-08-14T18:31:41.930Z,27.40
2022-08-14T18:34:31.241Z,27.30
2022-08-14T18:37:16.585Z,27.20
2022-08-14T18:40:02.001Z,27.10
2022-08-14T18:42:46.290Z,27.10
2022-08-14T18:45:18.710Z,27.00
2022-08-14T18:48:14.299Z,27.00
2022-08-14T18:50:53.164Z,26.90
2022-08-14T18:53:24.803Z,26.80
2022-08-14T18:56:01.909Z,26.70
2022-08-14T18:58:57.270Z,26.50
2022-08-14T19:01:30.313Z,26.50
2022-08-14T19:04:01.261Z,26.40
2022-08-14T19:06:56.189Z,26.20
2022-08-14T19:10:02.053Z,26.10
2022-08-14T19:13:02.875Z,26.00
2022-08-14T19:15:35.306Z,25.90
2022-08-14T19:18:26.031Z,25.90
2022-08-14T19:20:58.874Z,25.90
2022-08-14T19:23:43.227Z,25.90
2022-08-14T19:26:36.819Z,25.90
2022-08-14T19:29:37.616Z,25.80
2022-08-14T19:32:39.602Z,25.60
2022-08-14T19:35:55.328Z,25.50
2022-08-14T19:38:51.978Z,25.40
2022-08-14T19:41:25.050Z,25.30
2022-08-14T19:44:10.176Z,25.20
2022-08-14T19:47:02.628Z,25.00
2022-08-14T19:50:24.640Z,25.00
2022-08-14T19:52:29.808Z,24.90
2022-08-14T19:55:00.028Z,24.80
2022-08-14T19:57:31.166Z,24.70
2022-08-14T20:00:28.204Z,24.70
2022-08-14T20:03:10.978Z,24.60
2022-08-14T20:05:45.629Z,24.60
2022-08-14T20:09:05.739Z,24.50
2022-08-14T20:11:19.109Z,24.40
2022-08-14T20:14:03.982Z,24.40
2022-08-14T20:16:41.329Z,24.30
2022-08-14T20:19:16.632Z,24.30
2022-08-14T20:22:04.404Z,24.20
2022-08-14T20:24:41.294Z,24.10
2022-08-14T20:27:23.434Z,24.00
2022-08-14T20:30:33.095Z,23.90
2022-08-14T20:33:02.396Z,23.90
2022-08-14T20:35:35.541Z,23.70
2022-08-14T20:38:30.695Z,23.70
2022-08-14T20:40:59.478Z,23.60
2022-08-14T20:43:47.974Z,23.40
2022-08-14T20:46:29.375Z,23.30
2022-08-14T20:49:01.210Z,23.20
2022-08-14T20:51:37.027Z,23.10
2022-08-14T20:54:09.497Z,23.10
2022-08-14T20:56:40.614Z,23.00
2022-08-14T20:59:18.025Z,22.90
2022-08-14T21:01:52.066Z,22.80
2022-08-14T21:04:30.429Z,22.70
2022-08-14T21:07:24.875Z,22.60
2022-08-14T21:10:36.117Z,22.60
2022-08-14T21:13:26.350Z,22.50
2022-08-14T21:15:58.020Z,22.40
2022-08-14T21:18:31.952Z,22.40
2022-08-14T21:21:06.953Z,22.30
2022-08-14T21:23:55.379Z,22.30
2022-08-14T21:26:51.391Z,22.20
2022-08-14T21:29:14.603Z,22.20
2022-08-14T21:31:55.897Z,22.10
2022-08-14T21:34:27.091Z,22.00
2022-08-14T21:37:08.805Z,22.00
2022-08-14T21:39:38.141Z,21.90
2022-08-14T21:42:06.973Z,21.90
2022-08-14T21:44:42.840Z,21.90
2022-08-14T21:47:13.065Z,21.80
2022-08-14T21:49:46.338Z,21.80
2022-08-14T21:52:52.199Z,21.80
2022-08-14T21:55:10.672Z,21.80
2022-08-14T21:58:45.937Z,21.70
2022-08-14T22:00:39.716Z,21.70
2022-08-14T22:03:17.188Z,21.70
2022-08-14T22:05:50.712Z,21.70
2022-08-14T22:08:22.433Z,21.60
2022-08-14T22:10:57.141Z,21.60
2022-08-14T22:13:32.437Z,21.70
2022-08-14T22:16:02.567Z,21.60
2022-08-14T22:18:32.296Z,21.60
2022-08-14T22:21:05.865Z,21.60
2022-08-14T22:23:36.782Z,21.60
2022-08-14T22:26:07.241Z,21.50
2022-08-14T22:28:38.037Z,21.50
2022-08-14T22:31:18.217Z,21.50
2022-08-14T22:33:58.076Z,21.50
2022-08-14T22:36:47.287Z,21.50
2022-08-14T22:39:16.658Z,21.40
2022-08-14T22:41:55.846Z,21.40
2022-08-14T22:44:29.194Z,21.40
2022-08-14T22:46:58.842Z,21.40
2022-08-14T22:50:32.235Z,21.30
2022-08-14T22:52:32.681Z,21.40
2022-08-14T22:55:05.863Z,21.40
2022-08-14T22:57:37.111Z,21.30
2022-08-14T23:00:15.042Z,21.30
2022-08-14T23:02:46.653Z,21.20
2022-08-14T23:05:15.918Z,21.20
2022-08-14T23:08:59.556Z,21.30
2022-08-14T23:10:35.103Z,21.20
2022-08-14T23:13:07.501Z,21.20
2022-08-14T23:15:37.532Z,21.10
2022-08-14T23:18:07.334Z,21.20
2022-08-14T23:20:42.407Z,21.10
2022-08-14T23:23:22.984Z,21.10
2022-08-14T23:25:59.803Z,21.10
2022-08-14T23:28:34.705Z,21.00
2022-08-14T23:31:34.146Z,21.10
2022-08-14T23:34:06.644Z,21.10
2022-08-14T23:36:53.031Z,21.00
2022-08-14T23:39:29.607Z,21.00
2022-08-14T23:42:02.536Z,21.00
2022-08-14T23:44:35.314Z,21.00
2022-08-14T23:47:12.251Z,21.00
2022-08-14T23:50:01.149Z,21.00
2022-08-14T23:53:06.244Z,21.10
2022-08-14T23:55:28.461Z,21.10
2022-08-14T23:57:59.254Z,21.10
